Ribas do Rio Pardo, Brazil
Current Conditions -  °F | °C
As of 6:00 PM on Thursday 27 Nov 2014 (Local Time) from SBCG Reporting Station
Scattered Clouds Scattered Clouds  
Wind Chill: 82°   Ceiling: Unl
Heat Index: 86°   Visibility: 6mi
Dew Point: 70°   Wind: 7mph
Humidity: 66%   Direction: 300°WNW
Pressure: 29.83"   Gusts: NA
Location:  20.44°S, 53.76°W
Report Text: SBCG 272100Z 30006KT 270V330 9999 SCT026 FEW040TCU 28/21 Q1010
Loading
Personal Weather Stations






























Interactive Weather Map New forecast layout! Learn more

10-Day Weather Forecast

Advertisements
Track Severe Weather on mobile